createdAt,value
2019-03-26T00:00:07.629Z,6.73
2019-03-26T00:01:07.623Z,6.72
2019-03-26T00:02:07.619Z,6.72
2019-03-26T00:03:07.598Z,6.62
2019-03-26T00:04:07.615Z,6.62
2019-03-26T00:05:07.575Z,6.62
2019-03-26T00:06:07.565Z,6.61
2019-03-26T00:07:07.554Z,6.56
2019-03-26T00:08:07.543Z,6.62
2019-03-26T00:09:07.554Z,6.56
2019-03-26T00:10:07.548Z,6.58
2019-03-26T00:11:07.512Z,6.58
2019-03-26T00:12:07.506Z,6.61
2019-03-26T00:13:07.489Z,6.73
2019-03-26T00:14:07.502Z,6.61
2019-03-26T00:15:07.468Z,6.61
2019-03-26T00:16:07.464Z,6.63
2019-03-26T00:17:07.446Z,6.71
2019-03-26T00:18:07.440Z,6.59
2019-03-26T00:19:07.455Z,6.63
2019-03-26T00:20:07.419Z,6.73
2019-03-26T00:21:07.418Z,6.72
2019-03-26T00:22:07.396Z,6.62
2019-03-26T00:23:07.435Z,6.71
2019-03-26T00:24:07.430Z,6.76
2019-03-26T00:25:07.387Z,6.76
2019-03-26T00:26:07.352Z,6.71
2019-03-26T00:27:08.041Z,6.73
2019-03-26T00:28:07.338Z,6.72
2019-03-26T00:29:07.351Z,6.79
2019-03-26T00:30:07.313Z,6.73
2019-03-26T00:31:07.319Z,6.71
2019-03-26T00:32:07.329Z,6.77
2019-03-26T00:33:07.276Z,6.72
2019-03-26T00:34:18.772Z,6.76
2019-03-26T00:35:08.256Z,6.69
2019-03-26T00:36:07.251Z,6.63
2019-03-26T00:37:07.264Z,6.72
2019-03-26T00:38:07.229Z,6.62
2019-03-26T00:39:07.238Z,6.63
2019-03-26T00:40:07.203Z,6.61
2019-03-26T00:41:07.201Z,6.63
2019-03-26T00:42:07.183Z,6.59
2019-03-26T00:43:07.183Z,6.56
2019-03-26T00:44:07.181Z,6.58
2019-03-26T00:45:07.173Z,6.56
2019-03-26T00:46:07.145Z,6.59
2019-03-26T00:47:07.133Z,6.68
2019-03-26T00:48:07.123Z,6.54
2019-03-26T00:49:07.127Z,6.66
2019-03-26T00:50:07.138Z,6.59
2019-03-26T00:51:07.089Z,6.58
2019-03-26T00:52:07.083Z,6.59
2019-03-26T00:53:07.098Z,6.62
2019-03-26T00:54:07.135Z,6.56
2019-03-26T00:55:07.042Z,6.66
2019-03-26T00:56:07.040Z,6.56
2019-03-26T00:57:07.028Z,6.56
2019-03-26T00:58:07.036Z,6.56
2019-03-26T00:59:07.003Z,6.53
2019-03-26T01:00:07.039Z,6.53
2019-03-26T01:01:07.014Z,6.46
2019-03-26T01:02:06.971Z,6.47
2019-03-26T01:03:06.969Z,6.59
2019-03-26T01:04:06.957Z,6.58
2019-03-26T01:05:06.961Z,6.56
2019-03-26T01:06:06.929Z,6.53
2019-03-26T01:07:06.915Z,6.58
2019-03-26T01:08:06.909Z,6.54
2019-03-26T01:09:06.898Z,6.50
2019-03-26T01:10:06.912Z,6.54
2019-03-26T01:11:06.873Z,6.51
2019-03-26T01:12:06.867Z,6.47
2019-03-26T01:13:06.853Z,6.44
2019-03-26T01:14:06.848Z,6.43
2019-03-26T01:15:06.864Z,6.41
2019-03-26T01:16:06.824Z,6.43
2019-03-26T01:17:06.812Z,6.47
2019-03-26T01:18:06.799Z,6.43
2019-03-26T01:19:06.814Z,6.47
2019-03-26T01:20:06.782Z,6.47
2019-03-26T01:21:06.790Z,6.44
2019-03-26T01:22:06.760Z,6.47
2019-03-26T01:23:06.749Z,6.50
2019-03-26T01:24:06.741Z,6.50
2019-03-26T01:25:06.759Z,6.48
2019-03-26T01:26:06.715Z,6.43
2019-03-26T01:27:06.706Z,6.44
2019-03-26T01:28:06.692Z,6.41
2019-03-26T01:29:06.681Z,6.47
2019-03-26T01:30:06.684Z,6.46
2019-03-26T01:31:06.683Z,6.51
2019-03-26T01:32:06.657Z,6.46
2019-03-26T01:33:06.647Z,6.47
2019-03-26T01:34:06.632Z,6.43
2019-03-26T01:35:06.624Z,6.43
2019-03-26T01:36:06.631Z,6.47
2019-03-26T01:37:06.599Z,6.46
2019-03-26T01:38:06.594Z,6.41
2019-03-26T01:39:06.580Z,6.41
2019-03-26T01:40:06.576Z,6.43
2019-03-26T01:41:06.554Z,6.40
2019-03-26T01:42:06.569Z,6.35
2019-03-26T01:43:06.534Z,6.44
2019-03-26T01:44:06.527Z,6.41
2019-03-26T01:45:06.514Z,6.41
2019-03-26T01:46:06.528Z,6.38
2019-03-26T01:47:06.516Z,6.41
2019-03-26T01:48:06.482Z,6.47
2019-03-26T01:49:06.470Z,6.43
2019-03-26T01:50:06.464Z,6.43
2019-03-26T01:51:06.449Z,6.47
2019-03-26T01:52:06.457Z,6.43
2019-03-26T01:53:06.426Z,6.43
2019-03-26T01:54:06.419Z,6.43
2019-03-26T01:55:06.405Z,6.44
2019-03-26T01:56:06.403Z,6.41
2019-03-26T01:57:06.406Z,6.47
2019-03-26T01:58:06.377Z,6.43
2019-03-26T01:59:06.366Z,6.38
2019-03-26T02:00:06.354Z,6.44
2019-03-26T02:01:06.343Z,6.38
2019-03-26T02:02:06.359Z,6.38
2019-03-26T02:03:06.360Z,6.33
2019-03-26T02:04:06.316Z,6.44
2019-03-26T02:05:06.302Z,6.36
2019-03-26T02:06:06.290Z,6.40
2019-03-26T02:07:06.302Z,6.35
2019-03-26T02:08:06.268Z,6.33
2019-03-26T02:09:06.263Z,6.36
2019-03-26T02:10:06.259Z,6.29
2019-03-26T02:11:06.234Z,6.30
2019-03-26T02:12:06.247Z,6.28
2019-03-26T02:13:06.255Z,6.21
2019-03-26T02:14:06.207Z,6.30
2019-03-26T02:15:06.203Z,6.38
2019-03-26T02:16:06.187Z,6.41
2019-03-26T02:17:06.207Z,6.40
2019-03-26T02:18:06.163Z,6.40
2019-03-26T02:19:06.150Z,6.41
2019-03-26T02:20:06.145Z,6.26
2019-03-26T02:21:06.129Z,6.33
2019-03-26T02:22:06.153Z,6.32
2019-03-26T02:23:06.115Z,6.33
2019-03-26T02:24:06.097Z,6.33
2019-03-26T02:25:06.086Z,6.22
2019-03-26T02:26:06.076Z,6.38
2019-03-26T02:27:06.094Z,6.25
2019-03-26T02:28:06.067Z,6.29
2019-03-26T02:29:06.044Z,6.25
2019-03-26T02:30:06.035Z,6.32
2019-03-26T02:31:06.028Z,6.29
2019-03-26T02:32:06.038Z,6.28
2019-03-26T02:33:06.005Z,6.21
2019-03-26T02:34:06.003Z,6.22
2019-03-26T02:35:17.903Z,6.29
2019-03-26T02:36:06.971Z,6.18
2019-03-26T02:37:05.977Z,6.19
2019-03-26T02:38:05.964Z,6.25
2019-03-26T02:39:05.943Z,6.25
2019-03-26T02:40:05.937Z,6.25
2019-03-26T02:41:05.919Z,6.21
2019-03-26T02:42:05.925Z,6.25
2019-03-26T02:43:05.910Z,6.25
2019-03-26T02:44:05.890Z,6.14
2019-03-26T02:45:05.875Z,6.25
2019-03-26T02:46:05.867Z,6.21
2019-03-26T02:47:05.874Z,6.22
2019-03-26T02:48:05.849Z,6.29
2019-03-26T02:49:05.838Z,6.33
2019-03-26T02:50:05.826Z,6.30
2019-03-26T02:51:05.858Z,6.18
2019-03-26T02:52:05.813Z,6.22
2019-03-26T02:53:08.647Z,6.21
2019-03-26T02:54:05.779Z,6.26
2019-03-26T02:55:05.775Z,6.32
2019-03-26T02:56:05.760Z,6.29
2019-03-26T02:57:05.750Z,6.26
2019-03-26T02:58:05.756Z,6.25
2019-03-26T02:59:05.740Z,6.26
2019-03-26T03:00:05.714Z,6.21
2019-03-26T03:01:05.706Z,6.18
2019-03-26T03:02:05.695Z,6.19
2019-03-26T03:03:05.706Z,6.25
2019-03-26T03:04:05.679Z,6.19
2019-03-26T03:05:05.663Z,6.33
2019-03-26T03:06:05.653Z,6.25
2019-03-26T03:07:05.669Z,6.22
2019-03-26T03:08:05.665Z,6.19
2019-03-26T03:09:05.632Z,6.22
2019-03-26T03:10:05.611Z,6.28
2019-03-26T03:11:05.599Z,6.16
2019-03-26T03:12:05.599Z,6.18
2019-03-26T03:13:05.602Z,6.10
2019-03-26T03:14:05.567Z,6.21
2019-03-26T03:15:05.559Z,6.18
2019-03-26T03:16:05.550Z,6.18
2019-03-26T03:17:05.561Z,6.18
2019-03-26T03:18:05.556Z,6.11
2019-03-26T03:19:05.515Z,6.19
2019-03-26T03:20:05.506Z,6.19
2019-03-26T03:21:05.499Z,6.10
2019-03-26T03:22:05.612Z,6.25
2019-03-26T03:23:05.509Z,6.22
2019-03-26T03:24:05.461Z,6.25
2019-03-26T03:25:05.448Z,6.22
2019-03-26T03:26:05.448Z,6.21
2019-03-26T03:27:05.430Z,6.29
2019-03-26T03:28:05.501Z,6.25
2019-03-26T03:29:05.412Z,6.22
2019-03-26T03:30:05.398Z,6.14
2019-03-26T03:31:05.388Z,6.19
2019-03-26T03:32:05.388Z,6.13
2019-03-26T03:33:05.387Z,6.22
2019-03-26T03:34:05.376Z,6.22
2019-03-26T03:35:05.349Z,6.14
2019-03-26T03:36:05.332Z,6.11
2019-03-26T03:37:05.329Z,6.11
2019-03-26T03:38:05.319Z,6.14
2019-03-26T03:39:05.317Z,6.13
2019-03-26T03:40:05.306Z,6.10
2019-03-26T03:41:05.286Z,6.16
2019-03-26T03:42:05.279Z,6.16
2019-03-26T03:43:05.257Z,6.13
2019-03-26T03:44:05.277Z,6.26
2019-03-26T03:45:05.237Z,6.22
2019-03-26T03:46:05.245Z,6.16
2019-03-26T03:47:05.212Z,6.13
2019-03-26T03:48:05.204Z,6.18
2019-03-26T03:49:05.257Z,6.21
2019-03-26T03:50:05.199Z,6.22
2019-03-26T03:51:05.176Z,6.14
2019-03-26T03:52:05.169Z,6.21
2019-03-26T03:53:05.149Z,6.19
2019-03-26T03:54:05.159Z,6.16
2019-03-26T03:55:05.131Z,6.22
2019-03-26T03:56:05.123Z,6.26
2019-03-26T03:57:05.124Z,6.16
2019-03-26T03:58:05.111Z,6.11
2019-03-26T03:59:05.192Z,6.16
2019-03-26T04:00:05.232Z,6.14
2019-03-26T04:01:05.065Z,6.19
2019-03-26T04:02:05.056Z,6.16
2019-03-26T04:03:05.054Z,6.19
2019-03-26T04:04:05.043Z,6.14
2019-03-26T04:05:05.082Z,6.14
2019-03-26T04:06:09.667Z,6.22
2019-03-26T04:07:06.004Z,6.18
2019-03-26T04:08:05.002Z,6.16
2019-03-26T04:09:04.985Z,6.33
2019-03-26T04:10:04.980Z,6.22
2019-03-26T04:11:04.982Z,6.22
2019-03-26T04:12:04.956Z,6.11
2019-03-26T04:13:04.956Z,6.22
2019-03-26T04:14:04.936Z,6.06
2019-03-26T04:15:04.934Z,6.11
2019-03-26T04:16:04.926Z,6.09
2019-03-26T04:17:04.900Z,6.01
2019-03-26T04:18:04.900Z,6.03
2019-03-26T04:19:04.874Z,6.00
2019-03-26T04:20:04.867Z,6.11
2019-03-26T04:21:04.871Z,6.04
2019-03-26T04:22:04.848Z,6.00
2019-03-26T04:23:04.829Z,6.06
2019-03-26T04:24:04.822Z,6.13
2019-03-26T04:25:04.828Z,6.03
2019-03-26T04:26:04.820Z,6.06
2019-03-26T04:27:04.789Z,6.10
2019-03-26T04:28:04.780Z,6.10
2019-03-26T04:29:04.766Z,6.07
2019-03-26T04:30:04.765Z,6.09
2019-03-26T04:31:04.803Z,6.11
2019-03-26T04:32:04.741Z,6.21
2019-03-26T04:33:04.728Z,6.11
2019-03-26T04:34:04.717Z,6.18
2019-03-26T04:35:04.704Z,6.26
2019-03-26T04:36:04.728Z,6.13
2019-03-26T04:37:04.686Z,6.18
2019-03-26T04:38:04.677Z,6.19
2019-03-26T04:39:04.660Z,6.11
2019-03-26T04:40:04.651Z,6.11
2019-03-26T04:41:04.697Z,6.16
2019-03-26T04:42:04.630Z,6.10
2019-03-26T04:43:04.620Z,6.13
2019-03-26T04:44:04.608Z,6.10
2019-03-26T04:45:12.147Z,5.98
2019-03-26T04:46:04.611Z,6.09
2019-03-26T04:47:04.578Z,6.09
2019-03-26T04:48:04.567Z,6.13
2019-03-26T04:49:04.554Z,6.09
2019-03-26T04:50:04.542Z,6.06
2019-03-26T04:51:04.552Z,6.10
2019-03-26T04:52:04.528Z,6.09
2019-03-26T04:53:04.511Z,6.14
2019-03-26T04:54:04.502Z,6.07
2019-03-26T04:55:04.488Z,6.11
2019-03-26T04:56:04.499Z,6.11
2019-03-26T04:57:04.480Z,6.09
2019-03-26T04:58:04.457Z,6.13
2019-03-26T04:59:04.448Z,6.07
2019-03-26T05:00:04.436Z,6.11
2019-03-26T05:01:04.448Z,6.13
2019-03-26T05:02:04.414Z,6.16
2019-03-26T05:03:04.403Z,6.11
2019-03-26T05:04:04.392Z,6.06
2019-03-26T05:05:04.380Z,6.01
2019-03-26T05:06:04.399Z,6.09
2019-03-26T05:07:04.360Z,6.19
2019-03-26T05:08:04.347Z,6.03
2019-03-26T05:09:04.344Z,6.04
2019-03-26T05:10:04.393Z,6.01
2019-03-26T05:11:04.340Z,6.07
2019-03-26T05:12:04.305Z,6.03
2019-03-26T05:13:04.293Z,6.13
2019-03-26T05:14:04.290Z,6.10
2019-03-26T05:15:04.277Z,6.14
2019-03-26T05:16:04.284Z,6.10
2019-03-26T05:17:04.252Z,6.09
2019-03-26T05:18:04.248Z,6.10
2019-03-26T05:19:04.229Z,6.10
2019-03-26T05:20:04.222Z,6.07
2019-03-26T05:21:04.229Z,6.09
2019-03-26T05:22:04.220Z,6.10
2019-03-26T05:23:04.192Z,6.13
2019-03-26T05:24:04.183Z,6.09
2019-03-26T05:25:04.174Z,6.09
2019-03-26T05:26:04.188Z,6.06
2019-03-26T05:27:04.183Z,6.14
2019-03-26T05:28:04.143Z,6.06
2019-03-26T05:29:07.714Z,6.09
2019-03-26T05:30:04.146Z,6.18
2019-03-26T05:31:04.122Z,6.16
2019-03-26T05:32:04.091Z,6.03
2019-03-26T05:33:04.088Z,6.06
2019-03-26T05:34:04.073Z,6.01
2019-03-26T05:35:04.067Z,6.11
2019-03-26T05:36:04.088Z,6.03
2019-03-26T05:37:04.052Z,6.06
2019-03-26T05:38:04.037Z,6.00
2019-03-26T05:39:04.025Z,5.86
2019-03-26T05:40:04.032Z,6.06
2019-03-26T05:41:04.027Z,5.93
2019-03-26T05:42:03.987Z,6.00
2019-03-26T05:43:03.983Z,6.01
2019-03-26T05:44:03.967Z,6.01
2019-03-26T05:45:03.953Z,6.00
2019-03-26T05:46:03.964Z,6.04
2019-03-26T05:47:03.934Z,6.04
2019-03-26T05:48:03.924Z,6.10
2019-03-26T05:49:03.913Z,6.06
2019-03-26T05:50:03.902Z,6.07
2019-03-26T05:51:03.909Z,6.06
2019-03-26T05:52:03.880Z,6.07
2019-03-26T05:53:03.889Z,6.10
2019-03-26T05:54:03.857Z,6.06
2019-03-26T05:55:03.855Z,5.91
2019-03-26T05:56:03.863Z,6.04
2019-03-26T05:57:03.831Z,5.98
2019-03-26T05:58:03.822Z,5.98
2019-03-26T05:59:03.805Z,5.95
2019-03-26T06:00:03.815Z,5.92
2019-03-26T06:01:03.807Z,5.95
2019-03-26T06:02:13.423Z,5.92
2019-03-26T06:03:04.767Z,6.00
2019-03-26T06:04:03.755Z,5.93
2019-03-26T06:05:03.739Z,6.01
2019-03-26T06:06:03.840Z,6.07
2019-03-26T06:07:05.051Z,5.95
2019-03-26T06:08:03.720Z,6.03
2019-03-26T06:09:03.697Z,6.06
2019-03-26T06:10:03.686Z,5.95
2019-03-26T06:11:03.697Z,5.91
2019-03-26T06:12:03.664Z,6.06
2019-03-26T06:13:03.658Z,6.03
2019-03-26T06:14:03.675Z,5.98
2019-03-26T06:15:03.638Z,6.06
2019-03-26T06:16:03.644Z,6.10
2019-03-26T06:17:03.616Z,6.00
2019-03-26T06:18:03.609Z,6.06
2019-03-26T06:19:03.592Z,6.13
2019-03-26T06:20:03.581Z,6.06
2019-03-26T06:21:03.590Z,5.96
2019-03-26T06:22:03.563Z,6.07
2019-03-26T06:23:03.571Z,6.04
2019-03-26T06:24:03.566Z,6.09
2019-03-26T06:25:03.536Z,6.13
2019-03-26T06:26:03.527Z,6.04
2019-03-26T06:27:03.519Z,6.07
2019-03-26T06:28:03.496Z,6.10
2019-03-26T06:29:03.480Z,6.07
2019-03-26T06:30:03.482Z,6.11
2019-03-26T06:31:03.458Z,6.00
2019-03-26T06:32:03.471Z,5.96
2019-03-26T06:33:03.440Z,5.95
2019-03-26T06:34:03.435Z,6.07
2019-03-26T06:35:03.415Z,6.09
2019-03-26T06:36:03.412Z,5.98
2019-03-26T06:37:03.420Z,6.09
2019-03-26T06:38:03.390Z,6.18
2019-03-26T06:39:03.373Z,6.10
2019-03-26T06:40:03.378Z,6.14
2019-03-26T06:41:03.363Z,6.18
2019-03-26T06:42:03.356Z,6.18
2019-03-26T06:43:03.352Z,6.19
2019-03-26T06:44:03.326Z,6.10
2019-03-26T06:45:03.308Z,6.21
2019-03-26T06:46:03.295Z,6.28
2019-03-26T06:47:03.302Z,6.11
2019-03-26T06:48:04.457Z,6.16
2019-03-26T06:49:03.275Z,6.22
2019-03-26T06:50:03.250Z,6.26
2019-03-26T06:51:03.247Z,6.19
2019-03-26T06:52:03.251Z,6.30
2019-03-26T06:53:03.231Z,6.22
2019-03-26T06:54:03.216Z,6.26
2019-03-26T06:55:03.199Z,6.19
2019-03-26T06:56:03.190Z,6.26
2019-03-26T06:57:03.217Z,6.36
2019-03-26T06:58:03.183Z,6.33
2019-03-26T06:59:03.160Z,6.40
2019-03-26T07:00:03.150Z,6.38
2019-03-26T07:01:03.134Z,6.26
2019-03-26T07:02:03.143Z,6.32
2019-03-26T07:03:03.119Z,6.36
2019-03-26T07:04:03.099Z,6.43
2019-03-26T07:05:03.091Z,6.43
2019-03-26T07:06:03.083Z,6.41
2019-03-26T07:07:03.091Z,6.40
2019-03-26T07:08:03.052Z,6.44
2019-03-26T07:09:03.055Z,6.41
2019-03-26T07:10:03.037Z,6.43
2019-03-26T07:11:03.027Z,6.44
2019-03-26T07:12:03.030Z,6.51
2019-03-26T07:13:03.013Z,6.41
2019-03-26T07:14:02.992Z,6.43
2019-03-26T07:15:02.980Z,6.44
2019-03-26T07:16:02.989Z,6.47
2019-03-26T07:17:02.980Z,6.47
2019-03-26T07:18:02.950Z,6.44
2019-03-26T07:19:02.930Z,6.46
2019-03-26T07:20:02.925Z,6.47
2019-03-26T07:21:02.916Z,6.47
2019-03-26T07:22:02.916Z,6.44
2019-03-26T07:23:02.902Z,6.47
2019-03-26T07:24:02.883Z,6.44
2019-03-26T07:25:02.868Z,6.47
2019-03-26T07:26:02.857Z,6.44
2019-03-26T07:27:02.864Z,6.61
2019-03-26T07:28:02.839Z,6.50
2019-03-26T07:29:02.824Z,6.59
2019-03-26T07:30:02.819Z,6.56
2019-03-26T07:31:02.807Z,6.54
2019-03-26T07:32:02.814Z,6.56
2019-03-26T07:33:02.806Z,6.56
2019-03-26T07:34:02.840Z,6.62
2019-03-26T07:35:02.762Z,6.56
2019-03-26T07:36:02.749Z,6.62
2019-03-26T07:37:02.773Z,6.66
2019-03-26T07:38:02.732Z,6.56
2019-03-26T07:39:02.720Z,6.54
2019-03-26T07:40:02.706Z,6.59
2019-03-26T07:41:02.695Z,6.66
2019-03-26T07:42:02.714Z,6.56
2019-03-26T07:43:02.680Z,6.68
2019-03-26T07:44:02.658Z,6.66
2019-03-26T07:45:02.659Z,6.62
2019-03-26T07:46:02.667Z,6.66
2019-03-26T07:47:02.653Z,6.63
2019-03-26T07:48:02.629Z,6.62
2019-03-26T07:49:02.632Z,6.69
2019-03-26T07:50:02.604Z,6.71
2019-03-26T07:51:02.613Z,6.63
2019-03-26T07:52:02.598Z,6.76
2019-03-26T07:53:02.568Z,6.77
2019-03-26T07:54:02.558Z,6.72
2019-03-26T07:55:02.556Z,6.77
2019-03-26T07:56:02.541Z,6.80
2019-03-26T07:57:02.549Z,6.72
2019-03-26T07:58:02.515Z,6.71
2019-03-26T07:59:02.503Z,6.76
2019-03-26T08:00:02.494Z,6.71
2019-03-26T08:01:02.484Z,6.81
2019-03-26T08:02:02.493Z,6.73
2019-03-26T08:03:02.461Z,6.91
2019-03-26T08:04:02.522Z,6.90
2019-03-26T08:05:02.445Z,6.80
2019-03-26T08:06:02.460Z,6.81
2019-03-26T08:07:02.432Z,6.77
2019-03-26T08:08:02.440Z,6.81
2019-03-26T08:09:02.406Z,6.90
2019-03-26T08:10:02.396Z,6.91
2019-03-26T08:11:02.376Z,6.95
2019-03-26T08:12:02.384Z,6.98
2019-03-26T08:13:02.399Z,6.98
2019-03-26T08:14:02.366Z,7.05
2019-03-26T08:15:02.365Z,7.07
2019-03-26T08:16:02.355Z,7.07
2019-03-26T08:17:02.367Z,7.08
2019-03-26T08:18:02.308Z,7.05
2019-03-26T08:19:02.307Z,7.04
2019-03-26T08:20:02.280Z,7.12
2019-03-26T08:21:02.275Z,7.13
2019-03-26T08:22:02.278Z,7.12
2019-03-26T08:23:02.334Z,7.17
2019-03-26T08:24:02.241Z,7.19
2019-03-26T08:25:02.237Z,7.26
2019-03-26T08:26:02.219Z,7.26
2019-03-26T08:27:02.229Z,7.16
2019-03-26T08:28:04.892Z,7.20
2019-03-26T08:29:02.184Z,7.37
2019-03-26T08:30:02.184Z,7.24
2019-03-26T08:31:02.168Z,7.42
2019-03-26T08:32:02.170Z,7.32
2019-03-26T08:33:02.140Z,7.35
2019-03-26T08:34:02.138Z,7.32
2019-03-26T08:35:02.122Z,7.45
2019-03-26T08:36:02.149Z,7.42
2019-03-26T08:37:02.121Z,7.42
2019-03-26T08:38:12.460Z,7.50
2019-03-26T08:39:03.079Z,7.56
2019-03-26T08:40:02.078Z,7.60
2019-03-26T08:41:02.062Z,7.72
2019-03-26T08:42:02.066Z,7.67
2019-03-26T08:43:02.047Z,7.71
2019-03-26T08:44:02.021Z,7.78
2019-03-26T08:45:02.014Z,7.87
2019-03-26T08:46:02.000Z,7.92
2019-03-26T08:47:02.014Z,7.90
2019-03-26T08:48:01.980Z,7.99
2019-03-26T08:49:01.969Z,8.15
2019-03-26T08:50:01.959Z,8.29
2019-03-26T08:51:01.955Z,8.44
2019-03-26T08:52:01.968Z,8.53
2019-03-26T08:53:01.928Z,8.50
2019-03-26T08:54:01.924Z,8.58
2019-03-26T08:55:04.379Z,8.51
2019-03-26T08:56:01.896Z,8.53
2019-03-26T08:57:01.908Z,8.53
2019-03-26T08:58:01.876Z,8.42
2019-03-26T08:59:01.869Z,8.37
2019-03-26T09:00:01.869Z,8.39
2019-03-26T09:01:01.846Z,8.33
2019-03-26T09:02:01.858Z,8.37
2019-03-26T09:03:01.828Z,8.37
2019-03-26T09:04:01.822Z,8.32
2019-03-26T09:05:01.826Z,8.22
2019-03-26T09:06:01.790Z,8.21
2019-03-26T09:07:01.813Z,8.18
2019-03-26T09:08:01.766Z,8.25
2019-03-26T09:09:01.760Z,8.15
2019-03-26T09:10:01.746Z,8.21
2019-03-26T09:11:01.734Z,8.21
2019-03-26T09:12:01.743Z,8.12
2019-03-26T09:13:01.728Z,8.14
2019-03-26T09:14:01.705Z,8.12
2019-03-26T09:15:01.696Z,8.15
2019-03-26T09:16:01.692Z,8.21
2019-03-26T09:17:01.696Z,8.21
2019-03-26T09:18:01.662Z,8.21
2019-03-26T09:19:01.653Z,8.25
2019-03-26T09:20:04.548Z,8.29
2019-03-26T09:21:01.636Z,8.44
2019-03-26T09:22:01.619Z,8.48
2019-03-26T09:23:01.641Z,8.58
2019-03-26T09:24:01.602Z,8.75
2019-03-26T09:25:01.585Z,8.76
2019-03-26T09:26:01.586Z,8.75
2019-03-26T09:27:01.566Z,8.81
2019-03-26T09:28:01.584Z,8.78
2019-03-26T09:29:03.463Z,8.86
2019-03-26T09:30:01.533Z,8.78
2019-03-26T09:31:01.524Z,8.79
2019-03-26T09:32:01.513Z,8.83
2019-03-26T09:33:01.509Z,8.94
2019-03-26T09:34:01.510Z,8.94
2019-03-26T09:35:01.493Z,9.18
2019-03-26T09:36:01.594Z,9.24
2019-03-26T09:37:01.462Z,9.28
2019-03-26T09:38:01.452Z,9.28
2019-03-26T09:39:01.451Z,9.32
2019-03-26T09:40:01.446Z,9.34
2019-03-26T09:41:01.417Z,9.49
2019-03-26T09:42:01.406Z,9.52
2019-03-26T09:43:01.396Z,9.63
2019-03-26T09:44:01.408Z,9.76
2019-03-26T09:45:01.977Z,9.76
2019-03-26T09:46:01.364Z,9.76
2019-03-26T09:47:01.374Z,9.82
2019-03-26T09:48:01.348Z,9.83
2019-03-26T09:49:01.331Z,9.79
2019-03-26T09:50:01.349Z,9.81
2019-03-26T09:51:01.314Z,9.78
2019-03-26T09:52:01.295Z,9.76
2019-03-26T09:53:01.292Z,9.64
2019-03-26T09:54:01.281Z,9.63
2019-03-26T09:55:01.285Z,9.48
2019-03-26T09:56:01.310Z,9.49
2019-03-26T09:57:01.242Z,9.49
2019-03-26T09:58:01.246Z,9.42
2019-03-26T09:59:01.222Z,9.32
2019-03-26T10:00:01.242Z,9.39
2019-03-26T10:01:01.251Z,9.31
2019-03-26T10:02:01.208Z,9.31
2019-03-26T10:03:01.193Z,9.25
2019-03-26T10:04:01.166Z,9.16
2019-03-26T10:05:01.201Z,9.21
2019-03-26T10:06:01.152Z,9.12
2019-03-26T10:07:01.153Z,8.99
2019-03-26T10:08:01.133Z,9.02
2019-03-26T10:09:01.115Z,9.04
2019-03-26T10:10:01.173Z,9.01
2019-03-26T10:11:01.092Z,9.01
2019-03-26T10:12:01.085Z,9.02
2019-03-26T10:13:01.078Z,8.99
2019-03-26T10:14:01.065Z,8.97
2019-03-26T10:15:01.268Z,8.99
2019-03-26T10:16:01.093Z,8.88
2019-03-26T10:17:01.033Z,8.93
2019-03-26T10:18:01.026Z,8.83
2019-03-26T10:19:01.009Z,8.93
2019-03-26T10:20:01.023Z,8.84
2019-03-26T10:21:00.990Z,8.83
2019-03-26T10:22:00.978Z,8.79
2019-03-26T10:23:00.965Z,8.81
2019-03-26T10:24:00.960Z,8.86
2019-03-26T10:25:00.973Z,8.86
2019-03-26T10:26:00.930Z,8.84
2019-03-26T10:27:00.921Z,8.79
2019-03-26T10:28:00.911Z,8.76
2019-03-26T10:29:15.108Z,8.76
2019-03-26T10:30:01.918Z,8.71
2019-03-26T10:31:00.886Z,8.78
2019-03-26T10:32:00.872Z,8.69
2019-03-26T10:33:00.860Z,8.66
2019-03-26T10:34:00.955Z,8.81
2019-03-26T10:35:00.858Z,8.71
2019-03-26T10:36:00.830Z,8.78
2019-03-26T10:37:00.828Z,8.76
2019-03-26T10:38:00.808Z,8.86
2019-03-26T10:39:05.588Z,8.73
2019-03-26T10:40:01.808Z,8.68
2019-03-26T10:41:00.771Z,8.71
2019-03-26T10:42:00.770Z,8.66
2019-03-26T10:43:00.751Z,8.76
2019-03-26T10:44:00.740Z,8.66
2019-03-26T10:45:01.496Z,8.72
2019-03-26T10:46:00.730Z,8.66
2019-03-26T10:47:00.705Z,8.68
2019-03-26T10:48:00.700Z,8.58
2019-03-26T10:49:00.699Z,8.71
2019-03-26T10:50:00.698Z,8.73
2019-03-26T10:51:00.703Z,8.73
2019-03-26T10:52:00.653Z,8.68
2019-03-26T10:53:00.659Z,8.73
2019-03-26T10:54:00.652Z,8.83
2019-03-26T10:55:00.644Z,8.83
2019-03-26T10:56:00.638Z,8.79
2019-03-26T10:57:00.600Z,8.81
2019-03-26T10:58:00.602Z,8.84
2019-03-26T10:59:00.580Z,8.84
2019-03-26T11:00:00.581Z,8.93
2019-03-26T11:01:00.577Z,8.94
2019-03-26T11:02:00.556Z,8.97
2019-03-26T11:03:00.540Z,8.93
2019-03-26T11:04:00.524Z,8.93
2019-03-26T11:05:00.524Z,9.06
2019-03-26T11:06:00.541Z,9.10
2019-03-26T11:07:00.503Z,9.06
2019-03-26T11:08:00.480Z,9.02
2019-03-26T11:09:00.528Z,9.06
2019-03-26T11:10:00.569Z,9.16
2019-03-26T11:11:00.468Z,9.16
2019-03-26T11:12:00.458Z,9.24
2019-03-26T11:13:00.431Z,9.20
2019-03-26T11:14:00.429Z,9.27
2019-03-26T11:15:00.414Z,9.28
2019-03-26T11:16:00.397Z,9.30
2019-03-26T11:17:00.412Z,9.32
2019-03-26T11:18:00.382Z,9.30
2019-03-26T11:19:00.373Z,9.23
2019-03-26T11:20:00.394Z,9.18
2019-03-26T11:21:03.004Z,9.16
2019-03-26T11:22:00.342Z,9.16
2019-03-26T11:23:00.342Z,9.15
2019-03-26T11:24:00.309Z,9.15
2019-03-26T11:25:00.430Z,9.20
2019-03-26T11:26:00.290Z,9.27
2019-03-26T11:27:00.280Z,9.20
2019-03-26T11:28:00.290Z,9.24
2019-03-26T11:29:00.258Z,9.30
2019-03-26T11:30:00.379Z,9.27
2019-03-26T11:31:00.233Z,9.42
2019-03-26T11:32:00.226Z,9.53
2019-03-26T11:33:00.246Z,9.58
2019-03-26T11:34:00.203Z,9.49
2019-03-26T11:35:00.406Z,9.61
2019-03-26T11:36:00.189Z,9.61
2019-03-26T11:37:00.166Z,9.58
2019-03-26T11:38:00.207Z,9.63
2019-03-26T11:39:00.158Z,9.58
2019-03-26T11:40:00.388Z,9.63
2019-03-26T11:41:00.127Z,9.66
2019-03-26T11:42:00.120Z,9.60
2019-03-26T11:43:00.125Z,9.63
2019-03-26T11:44:00.094Z,9.66
2019-03-26T11:45:00.288Z,9.57
2019-03-26T11:46:00.080Z,9.67
2019-03-26T11:47:00.062Z,9.63
2019-03-26T11:48:00.070Z,9.78
2019-03-26T11:49:00.047Z,9.78
2019-03-26T11:50:00.053Z,9.81
2019-03-26T11:51:00.026Z,9.93
2019-03-26T11:52:00.034Z,9.94
2019-03-26T11:53:00.019Z,9.96
2019-03-26T11:53:59.991Z,10.04
2019-03-26T11:54:59.983Z,10.04
2019-03-26T11:55:59.973Z,10.09
2019-03-26T11:56:59.955Z,10.19
2019-03-26T11:57:59.961Z,10.15
2019-03-26T11:58:59.932Z,10.24
2019-03-26T11:59:59.926Z,10.30
2019-03-26T12:00:59.945Z,10.37
2019-03-26T12:01:59.904Z,10.37
2019-03-26T12:02:59.976Z,10.32
2019-03-26T12:03:59.881Z,10.28
2019-03-26T12:04:59.874Z,10.28
2019-03-26T12:05:59.873Z,10.37
2019-03-26T12:06:59.845Z,10.37
2019-03-26T12:07:59.857Z,10.40
2019-03-26T12:08:59.824Z,10.40
2019-03-26T12:09:59.832Z,10.28
2019-03-26T12:10:59.812Z,10.22
2019-03-26T12:11:59.803Z,10.19
2019-03-26T12:12:59.810Z,10.28
2019-03-26T12:13:59.772Z,10.39
2019-03-26T12:14:59.757Z,10.53
2019-03-26T12:15:59.753Z,10.63
2019-03-26T12:16:59.875Z,10.59
2019-03-26T12:17:59.747Z,10.66
2019-03-26T12:18:59.716Z,10.78
2019-03-26T12:20:00.505Z,10.74
2019-03-26T12:20:59.694Z,10.71
2019-03-26T12:21:59.705Z,10.59
2019-03-26T12:22:59.701Z,10.59
2019-03-26T12:23:59.666Z,10.60
2019-03-26T12:24:59.674Z,10.60
2019-03-26T12:25:59.649Z,10.59
2019-03-26T12:26:59.641Z,10.59
2019-03-26T12:27:59.633Z,10.47
2019-03-26T12:28:59.611Z,10.47
2019-03-26T12:29:59.603Z,10.43
2019-03-26T12:30:59.585Z,10.40
2019-03-26T12:31:59.579Z,10.39
2019-03-26T12:32:59.610Z,10.30
2019-03-26T12:33:59.555Z,10.28
2019-03-26T12:34:59.545Z,10.26
2019-03-26T12:35:59.532Z,10.15
2019-03-26T12:36:59.528Z,10.14
2019-03-26T12:37:59.508Z,10.18
2019-03-26T12:38:59.536Z,10.07
2019-03-26T12:40:00.615Z,9.97
2019-03-26T12:40:59.480Z,9.91
2019-03-26T12:41:59.488Z,9.88
2019-03-26T12:42:59.458Z,9.81
2019-03-26T12:43:59.490Z,9.82
2019-03-26T12:44:59.451Z,9.81
2019-03-26T12:46:01.873Z,9.78
2019-03-26T12:46:59.540Z,9.75
2019-03-26T12:47:59.405Z,9.67
2019-03-26T12:48:59.464Z,9.66
2019-03-26T12:49:59.401Z,9.63
2019-03-26T12:50:59.373Z,9.57
2019-03-26T12:51:59.360Z,9.52
2019-03-26T12:52:59.362Z,9.50
2019-03-26T12:53:59.371Z,9.60
2019-03-26T12:54:59.339Z,9.61
2019-03-26T12:55:59.318Z,9.60
2019-03-26T12:56:59.307Z,9.63
2019-03-26T12:57:59.307Z,9.45
2019-03-26T12:58:59.304Z,9.52
2019-03-26T12:59:59.274Z,9.56
2019-03-26T13:00:59.264Z,9.48
2019-03-26T13:01:59.252Z,9.52
2019-03-26T13:02:59.244Z,9.52
2019-03-26T13:04:11.889Z,9.40
2019-03-26T13:05:00.361Z,9.43
2019-03-26T13:05:59.215Z,9.38
2019-03-26T13:06:59.200Z,9.52
2019-03-26T13:07:59.239Z,9.50
2019-03-26T13:08:59.201Z,9.52
2019-03-26T13:10:12.243Z,9.57
2019-03-26T13:11:00.155Z,9.58
2019-03-26T13:11:59.150Z,9.45
2019-03-26T13:12:59.139Z,9.52
2019-03-26T13:13:59.143Z,9.56
2019-03-26T13:14:59.530Z,9.53
2019-03-26T13:15:59.102Z,9.58